Citadel — PBOK — position and weather

sailwx.info

Track history (hours):
 
Tides and Currents Weather Stations Pressure Air Temp Water Temp Dewpoint Dewpoint Depression Visibility Wind Speed Wind Dir Waves Ship Positions

Citadel

Last reported at 2016-Jun-28 17:15 UTC. Time now 2016-Jul-01 22:36 UTC.
Position N 43°49' W 007°42'.

Length 111 m; draft 6.2 m.

Type: Cargo ship. MMSI: 245977000.

Date/timePositionNaut miles runAvg speedWind from/ knotsBaromVisibWave heightAir tempDewpointWater temp
2016-Jun-28 17:15N 43°49' W 007°42'812.3
2016-Jun-28 16:33N 43°48' W 007°31'1211.8
2016-Jun-28 15:33N 43°48' W 007°15'4711.7
2016-Jun-28 11:32N 43°45' W 006°09'1312.1
2016-Jun-28 10:28N 43°44' W 005°51'1212.0
2016-Jun-28 09:27N 43°43' W 005°35'1112.0
2016-Jun-28 08:32N 43°43' W 005°19'1211.7
2016-Jun-28 07:33N 43°42' W 005°03'14611.9
2016-Jun-27 19:19N 43°32' W 001°42'8 0.1
2016-Jun-25 16:18N 43°32' W 001°32'2 2.9
2016-Jun-25 15:33N 43°34' W 001°34'0 0.2
2016-Jun-25 14:28N 43°34' W 001°33'0 0.0
2016-Jun-25 13:33N 43°34' W 001°33'0 0.0
2016-Jun-25 12:33N 43°34' W 001°33'0 0.0
2016-Jun-25 11:32N 43°34' W 001°33'2 2.4
2016-Jun-25 10:32N 43°36' W 001°34'14512.7
2016-Jun-24 23:06N 45°58' W 002°13'1212.9
2016-Jun-24 22:12N 46°10' W 002°15'4812.9
2016-Jun-24 18:30N 46°56' W 002°33'1212.8
2016-Jun-24 17:32N 47°07' W 002°23'1111.0
2016-Jun-24 16:33N 47°15' W 002°13'5 5.2
2016-Jun-24 15:33N 47°18' W 002°07'0 0.0
2016-Jun-24 14:33N 47°18' W 002°07'0 0.0
2016-Jun-24 13:33N 47°18' W 002°07'0 0.0
2016-Jun-24 12:31N 47°18' W 002°07'0 0.0
2016-Jun-24 11:33N 47°18' W 002°07'0 0.0
2016-Jun-24 10:30N 47°18' W 002°07'0 0.0
2016-Jun-24 09:33N 47°18' W 002°07'0 0.0
2016-Jun-24 08:29N 47°18' W 002°07'0 0.0
2016-Jun-24 07:32N 47°18' W 002°07'0 0.0
2016-Jun-24 04:33N 47°18' W 002°07'0 0.0
2016-Jun-24 03:33N 47°18' W 002°07'0 0.0
2016-Jun-24 02:33N 47°18' W 002°07'0 0.0
2016-Jun-24 01:32N 47°18' W 002°07'0 0.0
2016-Jun-24 00:29N 47°18' W 002°07'0 0.0
2016-Jun-23 23:31N 47°18' W 002°07'0 0.0
2016-Jun-23 22:31N 47°18' W 002°07'0 0.0
2016-Jun-23 21:30N 47°18' W 002°07'0 0.0
2016-Jun-23 20:30N 47°18' W 002°07'0 0.0
2016-Jun-23 19:32N 47°18' W 002°07'0 0.0
2016-Jun-23 18:29N 47°18' W 002°07'0 0.0
2016-Jun-23 17:32N 47°18' W 002°07'0 0.0
2016-Jun-23 16:22N 47°18' W 002°07'0 0.0
2016-Jun-23 15:31N 47°18' W 002°07'0 0.0
2016-Jun-23 14:33N 47°18' W 002°07'0 0.0
2016-Jun-23 13:33N 47°18' W 002°07'0 0.0
2016-Jun-23 12:23N 47°18' W 002°07'0 0.0
2016-Jun-23 11:29N 47°18' W 002°07'0 0.0
2016-Jun-23 10:29N 47°18' W 002°07'0 0.0
2016-Jun-23 09:31N 47°18' W 002°07'0 0.0
2016-Jun-23 08:31N 47°18' W 002°07'0 0.0
2016-Jun-23 07:33N 47°18' W 002°07'0 0.0
2016-Jun-23 05:32N 47°18' W 002°07'0 0.0
2016-Jun-23 04:32N 47°18' W 002°07'0 0.0
2016-Jun-23 03:28N 47°18' W 002°07'0 0.0
2016-Jun-23 02:31N 47°18' W 002°07'0 0.0
2016-Jun-23 01:31N 47°18' W 002°07'0 0.0
2016-Jun-23 00:33N 47°18' W 002°07'0 0.0
2016-Jun-22 23:33N 47°18' W 002°07'0 0.0
2016-Jun-22 22:29N 47°18' W 002°07'0 0.0
2016-Jun-22 21:32N 47°18' W 002°07'0 0.0
2016-Jun-22 20:31N 47°18' W 002°07'0 0.0
2016-Jun-22 19:31N 47°18' W 002°07'0 0.0
2016-Jun-22 18:31N 47°18' W 002°07'0 0.0
2016-Jun-22 17:30N 47°18' W 002°07'0 0.0
2016-Jun-22 16:33N 47°18' W 002°07'0 0.0
2016-Jun-22 15:32N 47°18' W 002°07'0 0.3
2016-Jun-22 14:34N 47°18' W 002°07'8 8.5
2016-Jun-22 13:34N 47°13' W 002°17'7 6.9
2016-Jun-22 12:34N 47°08' W 002°24'0 0.1
2016-Jun-22 11:32N 47°08' W 002°24'0 0.1
2016-Jun-22 10:31N 47°08' W 002°25'0 0.0
2016-Jun-22 09:32N 47°08' W 002°25'0 0.0
2016-Jun-22 08:32N 47°08' W 002°25'0 0.0
2016-Jun-22 07:30N 47°08' W 002°25'0 0.1
2016-Jun-22 06:30N 47°08' W 002°24'0 0.1
2016-Jun-22 05:32N 47°08' W 002°24'0 0.1
2016-Jun-22 04:31N 47°08' W 002°24'0 0.0
2016-Jun-22 03:32N 47°08' W 002°24'0 0.0
2016-Jun-22 02:32N 47°08' W 002°24'0 0.0
2016-Jun-22 01:30N 47°08' W 002°24'0 0.0
2016-Jun-22 00:32N 47°08' W 002°24'0 0.1
2016-Jun-21 23:32N 47°08' W 002°25'0 0.0
2016-Jun-21 22:31N 47°08' W 002°25'0 0.0
2016-Jun-21 21:31N 47°08' W 002°25'0 0.0
2016-Jun-21 20:31N 47°08' W 002°25'0 0.0
2016-Jun-21 19:33N 47°08' W 002°24'0 0.0
2016-Jun-21 18:33N 47°08' W 002°24'0 0.1
2016-Jun-21 17:27N 47°08' W 002°24'0 0.1
2016-Jun-21 16:33N 47°08' W 002°24'0 0.0
2016-Jun-21 15:29N 47°08' W 002°24'0 0.0
2016-Jun-21 14:31N 47°08' W 002°24'0 0.0
2016-Jun-21 13:30N 47°08' W 002°24'0 0.0
2016-Jun-21 12:31N 47°08' W 002°24'0 0.1
2016-Jun-21 11:24N 47°08' W 002°24'0 0.1
2016-Jun-21 10:29N 47°08' W 002°25'0 0.1
2016-Jun-21 09:33N 47°08' W 002°25'0 0.0
2016-Jun-21 08:31N 47°08' W 002°25'0 0.0
2016-Jun-21 07:31N 47°08' W 002°25'0 0.0
2016-Jun-21 06:33N 47°08' W 002°25'0 0.1
2016-Jun-21 04:33N 47°08' W 002°24'0 0.0
2016-Jun-21 03:33N 47°08' W 002°24'0 0.0
2016-Jun-21 02:33N 47°08' W 002°24'0 0.0
2016-Jun-21 01:31N 47°08' W 002°24'0 0.0
2016-Jun-21 00:32N 47°08' W 002°24'0 0.1
2016-Jun-20 23:32N 47°08' W 002°24'0 0.0
2016-Jun-20 22:33N 47°08' W 002°24'0 0.1
2016-Jun-20 21:33N 47°08' W 002°25'0 0.0
2016-Jun-20 20:33N 47°08' W 002°25'0 0.1
2016-Jun-20 19:33N 47°08' W 002°25'0 0.1
2016-Jun-20 18:31N 47°08' W 002°24'0 0.1
2016-Jun-20 17:31N 47°08' W 002°24'0 0.0
2016-Jun-20 16:33N 47°08' W 002°24'0 0.0
2016-Jun-20 15:33N 47°08' W 002°24'0 0.0
2016-Jun-20 14:32N 47°08' W 002°24'0 0.0
2016-Jun-20 13:29N 47°08' W 002°24'0 0.1
2016-Jun-20 12:34N 47°08' W 002°24'10 9.8
2016-Jun-20 11:33N 47°08' W 002°39'1111.2
2016-Jun-20 10:34N 47°10' W 002°55'1110.9
2016-Jun-20 09:34N 47°13' W 003°11'1110.9
2016-Jun-20 08:34N 47°15' W 003°26'1110.8
2016-Jun-20 07:34N 47°17' W 003°42'1111.2
2016-Jun-20 06:33N 47°19' W 003°58'1111.1
2016-Jun-20 05:34N 47°21' W 004°14'1211.8
2016-Jun-20 04:33N 47°26' W 004°30'1211.5
2016-Jun-20 03:33N 47°31' W 004°46'2010.0
2016-Jun-20 01:33N 47°48' W 005°00'9 9.3
2016-Jun-20 00:34N 47°57' W 005°05'3210.2
2016-Jun-19 21:26N 48°27' W 005°22'1011.1
2016-Jun-19 20:32N 48°36' W 005°16'1211.8
2016-Jun-19 19:32N 48°44' W 005°03'8610.3
2016-Jun-19 11:09N 49°41' W 003°23'712.0
2016-Jun-19 10:33N 49°46' W 003°15'1111.3
2016-Jun-19 09:33N 49°53' W 003°02'1010.1
2016-Jun-19 08:33N 49°58' W 002°49'69 8.6
2016-Jun-19 00:31N 50°18' W 001°05'1313.6
2016-Jun-18 23:33N 50°21' W 000°46'1212.4
2016-Jun-18 22:33N 50°25' W 000°27'1211.3
2016-Jun-18 21:31N 50°28' W 000°09'10 9.9
2016-Jun-18 20:33N 50°31' E 000°05'10 9.4
2016-Jun-18 19:33N 50°33' E 000°19'  
Track history (hours):
 
Tides and Currents Weather Stations Pressure Air Temp Water Temp Dewpoint Dewpoint Depression Visibility Wind Speed Wind Dir Waves Ship Positions

Citadel

Last reported at 2016-Jun-28 17:15 UTC. Time now 2016-Jul-01 22:36 UTC.
Position N 43°49' W 007°42'.

Length 111 m; draft 6.2 m.

Type: Cargo ship. MMSI: 245977000.

Date/timePositionNaut miles runAvg speedWind from/ knotsBaromVisibWave heightAir tempDewpointWater temp
2016-Jun-28 17:15N 43°49' W 007°42'812.3
2016-Jun-28 16:33N 43°48' W 007°31'1211.8
2016-Jun-28 15:33N 43°48' W 007°15'4711.7
2016-Jun-28 11:32N 43°45' W 006°09'1312.1
2016-Jun-28 10:28N 43°44' W 005°51'1212.0
2016-Jun-28 09:27N 43°43' W 005°35'1112.0
2016-Jun-28 08:32N 43°43' W 005°19'1211.7
2016-Jun-28 07:33N 43°42' W 005°03'14611.9
2016-Jun-27 19:19N 43°32' W 001°42'8 0.1
2016-Jun-25 16:18N 43°32' W 001°32'2 2.9
2016-Jun-25 15:33N 43°34' W 001°34'0 0.2
2016-Jun-25 14:28N 43°34' W 001°33'0 0.0
2016-Jun-25 13:33N 43°34' W 001°33'0 0.0
2016-Jun-25 12:33N 43°34' W 001°33'0 0.0
2016-Jun-25 11:32N 43°34' W 001°33'2 2.4
2016-Jun-25 10:32N 43°36' W 001°34'14512.7
2016-Jun-24 23:06N 45°58' W 002°13'1212.9
2016-Jun-24 22:12N 46°10' W 002°15'4812.9
2016-Jun-24 18:30N 46°56' W 002°33'1212.8
2016-Jun-24 17:32N 47°07' W 002°23'1111.0
2016-Jun-24 16:33N 47°15' W 002°13'5 5.2
2016-Jun-24 15:33N 47°18' W 002°07'0 0.0
2016-Jun-24 14:33N 47°18' W 002°07'0 0.0
2016-Jun-24 13:33N 47°18' W 002°07'0 0.0
2016-Jun-24 12:31N 47°18' W 002°07'0 0.0
2016-Jun-24 11:33N 47°18' W 002°07'0 0.0
2016-Jun-24 10:30N 47°18' W 002°07'0 0.0
2016-Jun-24 09:33N 47°18' W 002°07'0 0.0
2016-Jun-24 08:29N 47°18' W 002°07'0 0.0
2016-Jun-24 07:32N 47°18' W 002°07'0 0.0
2016-Jun-24 04:33N 47°18' W 002°07'0 0.0
2016-Jun-24 03:33N 47°18' W 002°07'0 0.0
2016-Jun-24 02:33N 47°18' W 002°07'0 0.0
2016-Jun-24 01:32N 47°18' W 002°07'0 0.0
2016-Jun-24 00:29N 47°18' W 002°07'0 0.0
2016-Jun-23 23:31N 47°18' W 002°07'0 0.0
2016-Jun-23 22:31N 47°18' W 002°07'0 0.0
2016-Jun-23 21:30N 47°18' W 002°07'0 0.0
2016-Jun-23 20:30N 47°18' W 002°07'0 0.0
2016-Jun-23 19:32N 47°18' W 002°07'0 0.0
2016-Jun-23 18:29N 47°18' W 002°07'0 0.0
2016-Jun-23 17:32N 47°18' W 002°07'0 0.0
2016-Jun-23 16:22N 47°18' W 002°07'0 0.0
2016-Jun-23 15:31N 47°18' W 002°07'0 0.0
2016-Jun-23 14:33N 47°18' W 002°07'0 0.0
2016-Jun-23 13:33N 47°18' W 002°07'0 0.0
2016-Jun-23 12:23N 47°18' W 002°07'0 0.0
2016-Jun-23 11:29N 47°18' W 002°07'0 0.0
2016-Jun-23 10:29N 47°18' W 002°07'0 0.0
2016-Jun-23 09:31N 47°18' W 002°07'0 0.0
2016-Jun-23 08:31N 47°18' W 002°07'0 0.0
2016-Jun-23 07:33N 47°18' W 002°07'0 0.0
2016-Jun-23 05:32N 47°18' W 002°07'0 0.0
2016-Jun-23 04:32N 47°18' W 002°07'0 0.0
2016-Jun-23 03:28N 47°18' W 002°07'0 0.0
2016-Jun-23 02:31N 47°18' W 002°07'0 0.0
2016-Jun-23 01:31N 47°18' W 002°07'0 0.0
2016-Jun-23 00:33N 47°18' W 002°07'0 0.0
2016-Jun-22 23:33N 47°18' W 002°07'0 0.0
2016-Jun-22 22:29N 47°18' W 002°07'0 0.0
2016-Jun-22 21:32N 47°18' W 002°07'0 0.0
2016-Jun-22 20:31N 47°18' W 002°07'0 0.0
2016-Jun-22 19:31N 47°18' W 002°07'0 0.0
2016-Jun-22 18:31N 47°18' W 002°07'0 0.0
2016-Jun-22 17:30N 47°18' W 002°07'0 0.0
2016-Jun-22 16:33N 47°18' W 002°07'0 0.0
2016-Jun-22 15:32N 47°18' W 002°07'0 0.3
2016-Jun-22 14:34N 47°18' W 002°07'8 8.5
2016-Jun-22 13:34N 47°13' W 002°17'7 6.9
2016-Jun-22 12:34N 47°08' W 002°24'0 0.1
2016-Jun-22 11:32N 47°08' W 002°24'0 0.1
2016-Jun-22 10:31N 47°08' W 002°25'0 0.0
2016-Jun-22 09:32N 47°08' W 002°25'0 0.0
2016-Jun-22 08:32N 47°08' W 002°25'0 0.0
2016-Jun-22 07:30N 47°08' W 002°25'0 0.1
2016-Jun-22 06:30N 47°08' W 002°24'0 0.1
2016-Jun-22 05:32N 47°08' W 002°24'0 0.1
2016-Jun-22 04:31N 47°08' W 002°24'0 0.0
2016-Jun-22 03:32N 47°08' W 002°24'0 0.0
2016-Jun-22 02:32N 47°08' W 002°24'0 0.0
2016-Jun-22 01:30N 47°08' W 002°24'0 0.0
2016-Jun-22 00:32N 47°08' W 002°24'0 0.1
2016-Jun-21 23:32N 47°08' W 002°25'0 0.0
2016-Jun-21 22:31N 47°08' W 002°25'0 0.0
2016-Jun-21 21:31N 47°08' W 002°25'0 0.0
2016-Jun-21 20:31N 47°08' W 002°25'0 0.0
2016-Jun-21 19:33N 47°08' W 002°24'0 0.0
2016-Jun-21 18:33N 47°08' W 002°24'0 0.1
2016-Jun-21 17:27N 47°08' W 002°24'0 0.1
2016-Jun-21 16:33N 47°08' W 002°24'0 0.0
2016-Jun-21 15:29N 47°08' W 002°24'0 0.0
2016-Jun-21 14:31N 47°08' W 002°24'0 0.0
2016-Jun-21 13:30N 47°08' W 002°24'0 0.0
2016-Jun-21 12:31N 47°08' W 002°24'0 0.1
2016-Jun-21 11:24N 47°08' W 002°24'0 0.1
2016-Jun-21 10:29N 47°08' W 002°25'0 0.1
2016-Jun-21 09:33N 47°08' W 002°25'0 0.0
2016-Jun-21 08:31N 47°08' W 002°25'0 0.0
2016-Jun-21 07:31N 47°08' W 002°25'0 0.0
2016-Jun-21 06:33N 47°08' W 002°25'0 0.1
2016-Jun-21 04:33N 47°08' W 002°24'0 0.0
2016-Jun-21 03:33N 47°08' W 002°24'0 0.0
2016-Jun-21 02:33N 47°08' W 002°24'0 0.0
2016-Jun-21 01:31N 47°08' W 002°24'0 0.0
2016-Jun-21 00:32N 47°08' W 002°24'0 0.1
2016-Jun-20 23:32N 47°08' W 002°24'0 0.0
2016-Jun-20 22:33N 47°08' W 002°24'0 0.1
2016-Jun-20 21:33N 47°08' W 002°25'0 0.0
2016-Jun-20 20:33N 47°08' W 002°25'0 0.1
2016-Jun-20 19:33N 47°08' W 002°25'0 0.1
2016-Jun-20 18:31N 47°08' W 002°24'0 0.1
2016-Jun-20 17:31N 47°08' W 002°24'0 0.0
2016-Jun-20 16:33N 47°08' W 002°24'0 0.0
2016-Jun-20 15:33N 47°08' W 002°24'0 0.0
2016-Jun-20 14:32N 47°08' W 002°24'0 0.0
2016-Jun-20 13:29N 47°08' W 002°24'0 0.1
2016-Jun-20 12:34N 47°08' W 002°24'10 9.8
2016-Jun-20 11:33N 47°08' W 002°39'1111.2
2016-Jun-20 10:34N 47°10' W 002°55'1110.9
2016-Jun-20 09:34N 47°13' W 003°11'1110.9
2016-Jun-20 08:34N 47°15' W 003°26'1110.8
2016-Jun-20 07:34N 47°17' W 003°42'1111.2
2016-Jun-20 06:33N 47°19' W 003°58'1111.1
2016-Jun-20 05:34N 47°21' W 004°14'1211.8
2016-Jun-20 04:33N 47°26' W 004°30'1211.5
2016-Jun-20 03:33N 47°31' W 004°46'2010.0
2016-Jun-20 01:33N 47°48' W 005°00'9 9.3
2016-Jun-20 00:34N 47°57' W 005°05'3210.2
2016-Jun-19 21:26N 48°27' W 005°22'1011.1
2016-Jun-19 20:32N 48°36' W 005°16'1211.8
2016-Jun-19 19:32N 48°44' W 005°03'8610.3
2016-Jun-19 11:09N 49°41' W 003°23'712.0
2016-Jun-19 10:33N 49°46' W 003°15'1111.3
2016-Jun-19 09:33N 49°53' W 003°02'1010.1
2016-Jun-19 08:33N 49°58' W 002°49'69 8.6
2016-Jun-19 00:31N 50°18' W 001°05'1313.6
2016-Jun-18 23:33N 50°21' W 000°46'1212.4
2016-Jun-18 22:33N 50°25' W 000°27'1211.3
2016-Jun-18 21:31N 50°28' W 000°09'10 9.9
2016-Jun-18 20:33N 50°31' E 000°05'10 9.4
2016-Jun-18 19:33N 50°33' E 000°19'  

Dump ship's entire track history